createdAt,value
2018-09-08T00:00:45.567Z,0
2018-09-08T00:01:46.076Z,0
2018-09-08T00:02:45.533Z,0
2018-09-08T00:03:45.516Z,0
2018-09-08T00:04:46.031Z,0
2018-09-08T00:05:45.219Z,0
2018-09-08T00:06:45.740Z,0
2018-09-08T00:07:45.722Z,0
2018-09-08T00:08:45.437Z,0
2018-09-08T00:09:45.686Z,0
2018-09-08T00:10:45.952Z,0
2018-09-08T00:11:45.922Z,0
2018-09-08T00:12:45.113Z,0
2018-09-08T00:13:45.361Z,0
2018-09-08T00:14:45.610Z,0
2018-09-08T00:15:45.600Z,0
2018-09-08T00:16:45.311Z,0
2018-09-08T00:17:45.824Z,0
2018-09-08T00:18:45.550Z,0
2018-09-08T00:19:45.278Z,0
2018-09-08T00:20:45.527Z,0
2018-09-08T00:21:45.243Z,0
2018-09-08T00:22:45.490Z,0
2018-09-08T00:23:45.516Z,0
2018-09-08T00:24:45.723Z,0
2018-09-08T00:25:45.490Z,0
2018-09-08T00:26:45.435Z,0
2018-09-08T00:27:45.411Z,0
2018-09-08T00:28:45.535Z,0
2018-09-08T00:29:45.378Z,0
2018-09-08T00:30:45.356Z,0
2018-09-08T00:31:44.819Z,0
2018-09-08T00:32:45.339Z,0
2018-09-08T00:33:45.051Z,0
2018-09-08T00:34:45.304Z,0
2018-09-08T00:35:45.023Z,0
2018-09-08T00:36:45.006Z,0
2018-09-08T00:37:45.260Z,0
2018-09-08T00:38:45.260Z,0
2018-09-08T00:39:44.692Z,0
2018-09-08T00:40:45.467Z,0
2018-09-08T00:41:44.934Z,0
2018-09-08T00:42:45.498Z,0
2018-09-08T00:43:44.898Z,0
2018-09-08T00:44:44.892Z,0
2018-09-08T00:45:45.174Z,0
2018-09-08T00:46:45.385Z,0
2018-09-08T00:47:45.125Z,0
2018-09-08T00:48:45.342Z,0
2018-09-08T00:49:44.834Z,0
2018-09-08T00:50:44.793Z,0
2018-09-08T00:51:45.036Z,0
2018-09-08T00:52:44.769Z,0
2018-09-08T00:53:45.009Z,0
2018-09-08T00:54:44.477Z,0
2018-09-08T00:55:44.975Z,0
2018-09-08T00:56:44.729Z,0
2018-09-08T00:57:44.938Z,0
2018-09-08T00:58:45.189Z,0
2018-09-08T00:59:44.384Z,0
2018-09-08T01:00:44.901Z,0
2018-09-08T01:01:44.892Z,0
2018-09-08T01:02:45.143Z,0
2018-09-08T01:03:44.755Z,0
2018-09-08T01:04:44.316Z,0
2018-09-08T01:05:44.557Z,0
2018-09-08T01:06:44.546Z,0
2018-09-08T01:07:44.787Z,0
2018-09-08T01:08:44.782Z,0
2018-09-08T01:09:44.439Z,0
2018-09-08T01:10:44.742Z,0
2018-09-08T01:11:44.465Z,0
2018-09-08T01:12:44.983Z,0
2018-09-08T01:13:44.696Z,0
2018-09-08T01:14:44.691Z,0
2018-09-08T01:15:44.140Z,0
2018-09-08T01:16:44.657Z,0
2018-09-08T01:17:44.640Z,0
2018-09-08T01:18:44.623Z,0
2018-09-08T01:19:44.347Z,0
2018-09-08T01:20:44.600Z,0
2018-09-08T01:21:44.579Z,0
2018-09-08T01:22:44.037Z,0
2018-09-08T01:23:44.288Z,0
2018-09-08T01:24:44.532Z,0
2018-09-08T01:25:44.522Z,0
2018-09-08T01:26:44.249Z,0
2018-09-08T01:27:44.763Z,0
2018-09-08T01:28:44.468Z,0
2018-09-08T01:29:43.936Z,0
2018-09-08T01:30:44.456Z,0
2018-09-08T01:31:44.431Z,0
2018-09-08T01:32:44.192Z,0
2018-09-08T01:33:43.902Z,0
2018-09-08T01:34:44.189Z,0
2018-09-08T01:35:44.173Z,0
2018-09-08T01:36:44.357Z,0
2018-09-08T01:37:44.356Z,0
2018-09-08T01:38:44.059Z,0
2018-09-08T01:39:44.053Z,0
2018-09-08T01:40:44.040Z,0
2018-09-08T01:41:44.285Z,0
2018-09-08T01:42:44.275Z,0
2018-09-08T01:43:44.254Z,0
2018-09-08T01:44:44.505Z,0
2018-09-08T01:45:44.493Z,0
2018-09-08T01:46:43.949Z,0
2018-09-08T01:47:44.460Z,0
2018-09-08T01:48:44.182Z,0
2018-09-08T01:49:43.900Z,0
2018-09-08T01:50:44.409Z,0
2018-09-08T01:51:44.136Z,0
2018-09-08T01:52:44.119Z,0
2018-09-08T01:53:43.834Z,0
2018-09-08T01:54:43.831Z,0
2018-09-08T01:55:44.087Z,0
2018-09-08T01:56:44.321Z,0
2018-09-08T01:57:43.795Z,0
2018-09-08T01:58:44.303Z,0
2018-09-08T01:59:43.496Z,0
2018-09-08T02:00:43.739Z,0
2018-09-08T02:01:44.263Z,0
2018-09-08T02:02:43.713Z,0
2018-09-08T02:03:43.687Z,0
2018-09-08T02:04:43.936Z,0
2018-09-08T02:05:43.657Z,0
2018-09-08T02:06:43.909Z,0
2018-09-08T02:07:43.893Z,0
2018-09-08T02:08:43.877Z,0
2018-09-08T02:09:43.601Z,0
2018-09-08T02:10:43.315Z,0
2018-09-08T02:11:43.827Z,0
2018-09-08T02:12:44.086Z,0
2018-09-08T02:13:43.810Z,0
2018-09-08T02:14:43.532Z,0
2018-09-08T02:15:43.515Z,0
2018-09-08T02:16:43.500Z,0
2018-09-08T02:17:43.473Z,0
2018-09-08T02:18:43.725Z,0
2018-09-08T02:19:43.717Z,0
2018-09-08T02:20:43.169Z,0
2018-09-08T02:21:43.153Z,0
2018-09-08T02:22:43.141Z,0
2018-09-08T02:23:43.402Z,0
2018-09-08T02:24:43.904Z,0
2018-09-08T02:25:43.635Z,0
2018-09-08T02:26:43.609Z,0
2018-09-08T02:27:43.325Z,0
2018-09-08T02:28:43.044Z,0
2018-09-08T02:29:43.534Z,0
2018-09-08T02:30:43.283Z,0
2018-09-08T02:31:43.006Z,0
2018-09-08T02:32:42.990Z,0
2018-09-08T02:33:42.976Z,0
2018-09-08T02:34:43.219Z,0
2018-09-08T02:35:43.472Z,0
2018-09-08T02:36:43.449Z,0
2018-09-08T02:37:43.176Z,0
2018-09-08T02:38:43.447Z,0
2018-09-08T02:39:42.622Z,0
2018-09-08T02:40:43.130Z,0
2018-09-08T02:41:42.591Z,0
2018-09-08T02:42:42.828Z,0
2018-09-08T02:43:43.356Z,0
2018-09-08T02:44:43.331Z,0
2018-09-08T02:45:42.783Z,0
2018-09-08T02:46:42.788Z,0
2018-09-08T02:47:43.017Z,0
2018-09-08T02:48:43.269Z,0
2018-09-08T02:49:42.723Z,0
2018-09-08T02:50:43.316Z,0
2018-09-08T02:51:43.219Z,0
2018-09-08T02:52:43.224Z,0
2018-09-08T02:53:43.454Z,0
2018-09-08T02:54:43.180Z,0
2018-09-08T02:55:43.433Z,0
2018-09-08T02:56:42.616Z,0
2018-09-08T02:57:43.131Z,0
2018-09-08T02:58:42.850Z,0
2018-09-08T02:59:42.834Z,0
2018-09-08T03:00:43.094Z,0
2018-09-08T03:01:43.334Z,0
2018-09-08T03:02:42.790Z,0
2018-09-08T03:03:43.044Z,0
2018-09-08T03:04:43.029Z,0
2018-09-08T03:05:43.002Z,0
2018-09-08T03:06:42.990Z,0
2018-09-08T03:07:42.968Z,0
2018-09-08T03:08:42.960Z,0
2018-09-08T03:09:42.948Z,0
2018-09-08T03:10:42.671Z,0
2018-09-08T03:11:42.125Z,0
2018-09-08T03:12:42.631Z,0
2018-09-08T03:13:42.934Z,0
2018-09-08T03:14:42.596Z,0
2018-09-08T03:15:42.328Z,0
2018-09-08T03:16:42.833Z,0
2018-09-08T03:17:42.825Z,0
2018-09-08T03:18:42.814Z,0
2018-09-08T03:19:42.792Z,0
2018-09-08T03:20:42.512Z,0
2018-09-08T03:21:42.758Z,0
2018-09-08T03:22:42.207Z,0
2018-09-08T03:23:42.456Z,0
2018-09-08T03:24:42.971Z,0
2018-09-08T03:25:42.707Z,0
2018-09-08T03:26:42.415Z,0
2018-09-08T03:27:42.394Z,0
2018-09-08T03:28:42.379Z,0
2018-09-08T03:29:42.631Z,0
2018-09-08T03:30:42.617Z,0
2018-09-08T03:31:42.072Z,0
2018-09-08T03:32:42.599Z,0
2018-09-08T03:33:42.570Z,0
2018-09-08T03:34:42.567Z,0
2018-09-08T03:35:42.538Z,0
2018-09-08T03:36:42.251Z,0
2018-09-08T03:37:41.980Z,0
2018-09-08T03:38:42.755Z,0
2018-09-08T03:39:41.951Z,0
2018-09-08T03:40:42.200Z,0
2018-09-08T03:41:41.917Z,0
2018-09-08T03:42:42.475Z,0
2018-09-08T03:43:42.415Z,0
2018-09-08T03:44:42.390Z,0
2018-09-08T03:45:42.118Z,0
2018-09-08T03:46:42.630Z,0
2018-09-08T03:47:42.349Z,0
2018-09-08T03:48:42.334Z,0
2018-09-08T03:49:42.584Z,0
2018-09-08T03:50:42.035Z,0
2018-09-08T03:51:42.022Z,0
2018-09-08T03:52:41.744Z,0
2018-09-08T03:53:42.251Z,0
2018-09-08T03:54:42.233Z,0
2018-09-08T03:55:42.219Z,0
2018-09-08T03:56:42.209Z,0
2018-09-08T03:57:42.191Z,0
2018-09-08T03:58:42.174Z,0
2018-09-08T03:59:42.422Z,0
2018-09-08T04:00:41.883Z,0
2018-09-08T04:01:42.133Z,0
2018-09-08T04:02:42.428Z,0
2018-09-08T04:03:42.359Z,0
2018-09-08T04:04:41.819Z,0
2018-09-08T04:05:42.457Z,0
2018-09-08T04:06:42.314Z,0
2018-09-08T04:07:42.033Z,0
2018-09-08T04:08:42.289Z,0
2018-09-08T04:09:42.266Z,0
2018-09-08T04:10:41.995Z,0
2018-09-08T04:11:41.715Z,0
2018-09-08T04:12:41.696Z,0
2018-09-08T04:13:41.414Z,0
2018-09-08T04:14:41.657Z,0
2018-09-08T04:15:41.916Z,0
2018-09-08T04:16:41.896Z,0
2018-09-08T04:17:41.617Z,0
2018-09-08T04:18:41.593Z,0
2018-09-08T04:19:42.120Z,0
2018-09-08T04:20:41.571Z,0
2018-09-08T04:21:41.824Z,0
2018-09-08T04:22:42.012Z,0
2018-09-08T04:23:41.781Z,0
2018-09-08T04:24:42.021Z,0
2018-09-08T04:25:41.940Z,0
2018-09-08T04:26:41.992Z,0
2018-09-08T04:27:41.730Z,0
2018-09-08T04:28:41.699Z,0
2018-09-08T04:29:42.156Z,0
2018-09-08T04:30:41.398Z,0
2018-09-08T04:31:41.919Z,0
2018-09-08T04:32:41.383Z,0
2018-09-08T04:33:41.359Z,0
2018-09-08T04:34:41.876Z,0
2018-09-08T04:35:41.326Z,0
2018-09-08T04:36:41.571Z,0
2018-09-08T04:37:41.304Z,0
2018-09-08T04:38:41.293Z,0
2018-09-08T04:39:41.538Z,0
2018-09-08T04:40:41.511Z,0
2018-09-08T04:41:41.225Z,0
2018-09-08T04:42:41.542Z,0
2018-09-08T04:43:40.932Z,0
2018-09-08T04:44:41.451Z,0
2018-09-08T04:45:41.711Z,0
2018-09-08T04:46:41.433Z,0
2018-09-08T04:47:41.134Z,0
2018-09-08T04:48:41.386Z,0
2018-09-08T04:49:41.370Z,0
2018-09-08T04:50:41.621Z,0
2018-09-08T04:51:41.089Z,0
2018-09-08T04:52:41.045Z,0
2018-09-08T04:53:41.565Z,0
2018-09-08T04:54:41.022Z,0
2018-09-08T04:55:41.275Z,0
2018-09-08T04:56:41.260Z,5
2018-09-08T04:57:41.554Z,5
2018-09-08T04:58:40.960Z,5
2018-09-08T04:59:41.206Z,5
2018-09-08T05:00:40.665Z,5
2018-09-08T05:01:41.180Z,5
2018-09-08T05:02:41.700Z,5
2018-09-08T05:03:41.151Z,5
2018-09-08T05:04:41.133Z,5
2018-09-08T05:05:40.327Z,5
2018-09-08T05:06:41.121Z,5
2018-09-08T05:07:40.827Z,10
2018-09-08T05:08:40.859Z,10
2018-09-08T05:09:41.057Z,10
2018-09-08T05:10:41.306Z,10
2018-09-08T05:11:40.496Z,10
2018-09-08T05:12:41.290Z,10
2018-09-08T05:13:41.105Z,10
2018-09-08T05:14:41.238Z,10
2018-09-08T05:15:41.224Z,10
2018-09-08T05:16:41.205Z,10
2018-09-08T05:17:41.199Z,15
2018-09-08T05:18:40.107Z,15
2018-09-08T05:19:40.624Z,15
2018-09-08T05:20:40.890Z,15
2018-09-08T05:21:41.133Z,15
2018-09-08T05:22:41.108Z,15
2018-09-08T05:23:40.942Z,15
2018-09-08T05:24:40.881Z,15
2018-09-08T05:25:40.544Z,15
2018-09-08T05:26:40.510Z,20
2018-09-08T05:27:40.490Z,20
2018-09-08T05:28:40.862Z,20
2018-09-08T05:29:40.464Z,20
2018-09-08T05:30:41.049Z,20
2018-09-08T05:31:40.703Z,20
2018-09-08T05:32:40.689Z,20
2018-09-08T05:33:40.664Z,20
2018-09-08T05:34:40.386Z,20
2018-09-08T05:35:40.894Z,25
2018-09-08T05:36:40.355Z,25
2018-09-08T05:37:40.596Z,25
2018-09-08T05:38:40.323Z,25
2018-09-08T05:39:40.517Z,25
2018-09-08T05:40:40.553Z,25
2018-09-08T05:41:40.796Z,25
2018-09-08T05:42:40.797Z,25
2018-09-08T05:43:40.233Z,25
2018-09-08T05:44:40.225Z,25
2018-09-08T05:45:40.756Z,30
2018-09-08T05:46:40.185Z,30
2018-09-08T05:47:40.182Z,30
2018-09-08T05:48:40.706Z,30
2018-09-08T05:49:40.675Z,30
2018-09-08T05:50:40.136Z,30
2018-09-08T05:51:40.116Z,30
2018-09-08T05:52:40.091Z,30
2018-09-08T05:53:40.339Z,30
2018-09-08T05:54:40.067Z,30
2018-09-08T05:55:40.053Z,30
2018-09-08T05:56:40.037Z,35
2018-09-08T05:57:40.017Z,35
2018-09-08T05:58:40.134Z,35
2018-09-08T05:59:40.515Z,35
2018-09-08T06:00:39.702Z,35
2018-09-08T06:01:39.950Z,35
2018-09-08T06:02:40.203Z,35
2018-09-08T06:03:40.192Z,35
2018-09-08T06:04:40.176Z,35
2018-09-08T06:05:39.888Z,35
2018-09-08T06:06:40.395Z,40
2018-09-08T06:07:40.385Z,40
2018-09-08T06:08:39.834Z,40
2018-09-08T06:09:40.093Z,40
2018-09-08T06:10:39.540Z,40
2018-09-08T06:11:40.323Z,40
2018-09-08T06:12:40.302Z,40
2018-09-08T06:13:39.764Z,40
2018-09-08T06:14:40.279Z,40
2018-09-08T06:15:39.996Z,45
2018-09-08T06:16:39.987Z,45
2018-09-08T06:17:39.521Z,45
2018-09-08T06:18:39.961Z,45
2018-09-08T06:19:39.535Z,45
2018-09-08T06:20:39.922Z,45
2018-09-08T06:21:40.169Z,45
2018-09-08T06:22:40.148Z,45
2018-09-08T06:23:39.347Z,45
2018-09-08T06:24:39.972Z,45
2018-09-08T06:25:40.752Z,45
2018-09-08T06:26:39.305Z,45
2018-09-08T06:27:39.558Z,45
2018-09-08T06:28:40.128Z,45
2018-09-08T06:29:39.725Z,50
2018-09-08T06:30:39.506Z,50
2018-09-08T06:31:39.768Z,50
2018-09-08T06:32:39.476Z,50
2018-09-08T06:33:40.258Z,50
2018-09-08T06:34:39.727Z,50
2018-09-08T06:35:39.720Z,50
2018-09-08T06:36:39.142Z,50
2018-09-08T06:37:39.388Z,50
2018-09-08T06:38:39.955Z,50
2018-09-08T06:39:39.890Z,55
2018-09-08T06:40:39.084Z,55
2018-09-08T06:41:39.329Z,55
2018-09-08T06:42:39.582Z,55
2018-09-08T06:43:39.834Z,55
2018-09-08T06:44:39.035Z,55
2018-09-08T06:45:39.807Z,55
2018-09-08T06:46:39.779Z,55
2018-09-08T06:47:39.236Z,55
2018-09-08T06:48:39.490Z,60
2018-09-08T06:49:39.465Z,60
2018-09-08T06:50:39.189Z,60
2018-09-08T06:51:38.925Z,60
2018-09-08T06:52:39.166Z,60
2018-09-08T06:53:39.423Z,60
2018-09-08T06:54:39.402Z,60
2018-09-08T06:55:38.859Z,60
2018-09-08T06:56:39.375Z,60
2018-09-08T06:57:39.100Z,60
2018-09-08T06:58:39.082Z,60
2018-09-08T06:59:39.323Z,60
2018-09-08T07:00:39.316Z,60
2018-09-08T07:01:38.762Z,60
2018-09-08T07:02:39.297Z,65
2018-09-08T07:03:39.378Z,65
2018-09-08T07:04:38.990Z,65
2018-09-08T07:05:39.521Z,65
2018-09-08T07:06:38.697Z,65
2018-09-08T07:07:39.216Z,65
2018-09-08T07:08:39.209Z,65
2018-09-08T07:09:38.649Z,65
2018-09-08T07:10:38.904Z,65
2018-09-08T07:11:39.148Z,65
2018-09-08T07:12:39.400Z,65
2018-09-08T07:13:38.861Z,65
2018-09-08T07:14:38.893Z,65
2018-09-08T07:15:38.830Z,65
2018-09-08T07:16:39.346Z,65
2018-09-08T07:17:38.789Z,65
2018-09-08T07:18:38.543Z,65
2018-09-08T07:19:39.041Z,65
2018-09-08T07:20:38.768Z,70
2018-09-08T07:21:38.767Z,70
2018-09-08T07:22:38.989Z,70
2018-09-08T07:23:38.707Z,70
2018-09-08T07:24:38.696Z,70
2018-09-08T07:25:38.168Z,70
2018-09-08T07:26:38.397Z,75
2018-09-08T07:27:38.648Z,75
2018-09-08T07:28:39.167Z,75
2018-09-08T07:29:38.365Z,75
2018-09-08T07:30:38.614Z,75
2018-09-08T07:31:38.604Z,75
2018-09-08T07:32:38.584Z,80
2018-09-08T07:33:38.835Z,80
2018-09-08T07:34:38.826Z,80
2018-09-08T07:35:38.816Z,80
2018-09-08T07:36:38.786Z,80
2018-09-08T07:37:38.558Z,80
2018-09-08T07:38:39.025Z,85
2018-09-08T07:39:38.750Z,85
2018-09-08T07:40:38.735Z,80
2018-09-08T07:41:38.737Z,80
2018-09-08T07:42:38.957Z,80
2018-09-08T07:43:38.691Z,80
2018-09-08T07:44:38.678Z,80
2018-09-08T07:45:38.935Z,80
2018-09-08T07:46:38.377Z,80
2018-09-08T07:47:38.392Z,80
2018-09-08T07:48:38.353Z,80
2018-09-08T07:49:38.076Z,85
2018-09-08T07:50:38.381Z,85
2018-09-08T07:51:38.576Z,85
2018-09-08T07:52:38.560Z,90
2018-09-08T07:53:39.540Z,90
2018-09-08T07:54:38.016Z,90
2018-09-08T07:55:38.584Z,90
2018-09-08T07:56:37.982Z,90
2018-09-08T07:57:38.756Z,90
2018-09-08T07:58:37.950Z,90
2018-09-08T07:59:37.957Z,95
2018-09-08T08:00:38.722Z,95
2018-09-08T08:01:38.711Z,100
2018-09-08T08:02:37.905Z,100
2018-09-08T08:03:38.406Z,105
2018-09-08T08:04:38.192Z,110
2018-09-08T08:05:38.405Z,110
2018-09-08T08:06:38.521Z,110
2018-09-08T08:07:37.832Z,115
2018-09-08T08:08:38.074Z,125
2018-09-08T08:09:38.326Z,160
2018-09-08T08:10:38.058Z,405
2018-09-08T08:11:38.305Z,695
2018-09-08T08:12:38.299Z,715
2018-09-08T08:13:38.286Z,750
2018-09-08T08:14:38.174Z,750
2018-09-08T08:15:38.011Z,730
2018-09-08T08:16:38.238Z,480
2018-09-08T08:17:38.498Z,220
2018-09-08T08:18:38.219Z,235
2018-09-08T08:19:38.472Z,190
2018-09-08T08:20:37.981Z,155
2018-09-08T08:21:38.177Z,160
2018-09-08T08:22:38.167Z,205
2018-09-08T08:23:38.177Z,150
2018-09-08T08:24:38.165Z,155
2018-09-08T08:25:38.407Z,145
2018-09-08T08:26:38.137Z,130
2018-09-08T08:27:38.167Z,115
2018-09-08T08:28:38.101Z,115
2018-09-08T08:29:38.286Z,115
2018-09-08T08:30:37.815Z,120
2018-09-08T08:31:37.536Z,120
2018-09-08T08:32:38.320Z,125
2018-09-08T08:33:37.781Z,125
2018-09-08T08:34:38.020Z,130
2018-09-08T08:35:38.030Z,135
2018-09-08T08:36:38.007Z,135
2018-09-08T08:37:37.729Z,140
2018-09-08T08:38:37.717Z,140
2018-09-08T08:39:37.704Z,140
2018-09-08T08:40:37.689Z,140
2018-09-08T08:41:37.951Z,145
2018-09-08T08:42:37.670Z,145
2018-09-08T08:43:38.187Z,150
2018-09-08T08:44:37.381Z,150
2018-09-08T08:45:38.166Z,150
2018-09-08T08:46:37.892Z,155
2018-09-08T08:47:37.879Z,155
2018-09-08T08:48:37.600Z,150
2018-09-08T08:49:38.113Z,150
2018-09-08T08:50:37.849Z,155
2018-09-08T08:51:38.098Z,155
2018-09-08T08:52:37.819Z,155
2018-09-08T08:53:37.798Z,155
2018-09-08T08:54:38.059Z,150
2018-09-08T08:55:38.055Z,150
2018-09-08T08:56:37.757Z,150
2018-09-08T08:57:37.759Z,150
2018-09-08T08:58:37.745Z,145
2018-09-08T08:59:37.461Z,140
2018-09-08T09:00:37.979Z,135
2018-09-08T09:01:37.444Z,130
2018-09-08T09:02:37.963Z,130
2018-09-08T09:03:37.410Z,125
2018-09-08T09:04:37.407Z,130
2018-09-08T09:05:37.389Z,130
2018-09-08T09:06:37.643Z,135
2018-09-08T09:07:39.151Z,140
2018-09-08T09:08:40.180Z,150
2018-09-08T09:09:36.817Z,165
2018-09-08T09:10:37.594Z,175
2018-09-08T09:11:38.216Z,180
2018-09-08T09:12:37.044Z,195
2018-09-08T09:13:38.568Z,180
2018-09-08T09:14:39.995Z,185
2018-09-08T09:15:39.742Z,200
2018-09-08T09:16:37.525Z,210
2018-09-08T09:17:37.246Z,195
2018-09-08T09:18:41.091Z,195
2018-09-08T09:19:37.489Z,200
2018-09-08T09:20:37.744Z,230
2018-09-08T09:21:37.733Z,235
2018-09-08T09:22:36.919Z,230
2018-09-08T09:23:37.711Z,255
2018-09-08T09:24:40.108Z,260
2018-09-08T09:25:37.172Z,260
2018-09-08T09:26:37.415Z,270
2018-09-08T09:27:37.133Z,270
2018-09-08T09:28:37.396Z,275
2018-09-08T09:29:37.637Z,260
2018-09-08T09:30:37.636Z,240
2018-09-08T09:31:37.612Z,230
2018-09-08T09:32:37.099Z,235
2018-09-08T09:33:37.612Z,245
2018-09-08T09:34:37.585Z,245
2018-09-08T09:35:37.044Z,245
2018-09-08T09:36:37.577Z,255
2018-09-08T09:37:37.432Z,265
2018-09-08T09:38:37.542Z,270
2018-09-08T09:39:37.259Z,265
2018-09-08T09:40:37.260Z,260
2018-09-08T09:41:37.019Z,255
2018-09-08T09:42:37.508Z,260
2018-09-08T09:43:36.692Z,255
2018-09-08T09:44:37.220Z,245
2018-09-08T09:45:37.463Z,245
2018-09-08T09:46:37.187Z,240
2018-09-08T09:47:36.911Z,235
2018-09-08T09:48:37.170Z,235
2018-09-08T09:49:36.897Z,230
2018-09-08T09:50:36.887Z,235
2018-09-08T09:51:37.143Z,235
2018-09-08T09:52:37.124Z,230
2018-09-08T09:53:36.850Z,205
2018-09-08T09:54:36.854Z,210
2018-09-08T09:55:37.033Z,235
2018-09-08T09:56:37.087Z,245
2018-09-08T09:57:36.285Z,260
2018-09-08T09:58:37.070Z,265
2018-09-08T09:59:37.326Z,240
2018-09-08T10:00:36.784Z,230
2018-09-08T10:01:36.770Z,215
2018-09-08T10:02:36.767Z,200
2018-09-08T10:03:37.284Z,195
2018-09-08T10:04:37.028Z,190
2018-09-08T10:05:37.008Z,180
2018-09-08T10:06:37.348Z,180
2018-09-08T10:07:36.972Z,180
2018-09-08T10:08:36.433Z,175
2018-09-08T10:09:36.688Z,205
2018-09-08T10:10:37.200Z,215
2018-09-08T10:11:36.657Z,215
2018-09-08T10:12:36.912Z,210
2018-09-08T10:13:36.639Z,220
2018-09-08T10:14:37.164Z,235
2018-09-08T10:15:36.884Z,250
2018-09-08T10:16:36.606Z,245
2018-09-08T10:17:36.610Z,235
2018-09-08T10:18:36.853Z,250
2018-09-08T10:19:37.103Z,260
2018-09-08T10:20:37.103Z,245
2018-09-08T10:21:36.830Z,235
2018-09-08T10:22:36.808Z,230
2018-09-08T10:23:36.758Z,230
2018-09-08T10:24:36.524Z,235
2018-09-08T10:25:36.509Z,225
2018-09-08T10:26:37.268Z,270
2018-09-08T10:27:37.029Z,310
2018-09-08T10:28:37.493Z,325
2018-09-08T10:29:37.929Z,325
2018-09-08T10:30:37.444Z,310
2018-09-08T10:31:36.715Z,280
2018-09-08T10:32:36.446Z,270
2018-09-08T10:33:36.713Z,275
2018-09-08T10:34:36.742Z,300
2018-09-08T10:35:36.420Z,305
2018-09-08T10:36:36.400Z,315
2018-09-08T10:37:36.397Z,330
2018-09-08T10:38:36.641Z,320
2018-09-08T10:39:36.130Z,310
2018-09-08T10:40:37.077Z,280
2018-09-08T10:41:36.626Z,280
2018-09-08T10:42:36.619Z,290
2018-09-08T10:43:36.593Z,290
2018-09-08T10:44:36.853Z,290
2018-09-08T10:45:36.851Z,295
2018-09-08T10:46:36.849Z,305
2018-09-08T10:47:36.289Z,305
2018-09-08T10:48:36.282Z,310
2018-09-08T10:49:36.547Z,315
2018-09-08T10:50:36.793Z,325
2018-09-08T10:51:36.008Z,325
2018-09-08T10:52:36.243Z,325
2018-09-08T10:53:36.235Z,320
2018-09-08T10:54:36.765Z,330
2018-09-08T10:55:36.758Z,325
2018-09-08T10:56:36.736Z,330
2018-09-08T10:57:36.481Z,335
2018-09-08T10:58:36.188Z,325
2018-09-08T10:59:36.445Z,315
2018-09-08T11:00:36.171Z,270
2018-09-08T11:01:36.705Z,245
2018-09-08T11:02:37.058Z,265
2018-09-08T11:03:36.154Z,300
2018-09-08T11:04:36.405Z,270
2018-09-08T11:05:35.882Z,265
2018-09-08T11:06:35.851Z,280
2018-09-08T11:07:35.836Z,400
2018-09-08T11:08:36.091Z,350
2018-09-08T11:09:36.084Z,300
2018-09-08T11:10:36.080Z,295
2018-09-08T11:11:36.075Z,285
2018-09-08T11:12:36.585Z,220
2018-09-08T11:13:36.313Z,205
2018-09-08T11:14:35.518Z,200
2018-09-08T11:15:36.392Z,210
2018-09-08T11:16:36.022Z,340
2018-09-08T11:17:36.306Z,255
2018-09-08T11:18:35.741Z,290
2018-09-08T11:19:36.039Z,250
2018-09-08T11:20:36.523Z,240
2018-09-08T11:21:35.970Z,245
2018-09-08T11:22:35.704Z,1350
2018-09-08T11:23:36.276Z,1540
2018-09-08T11:24:36.212Z,1575
2018-09-08T11:25:36.199Z,1520
2018-09-08T11:26:35.939Z,290
2018-09-08T11:27:36.197Z,1380
2018-09-08T11:28:35.919Z,325
2018-09-08T11:29:35.915Z,295
2018-09-08T11:30:36.664Z,340
2018-09-08T11:31:36.213Z,600
2018-09-08T11:32:35.893Z,1450
2018-09-08T11:33:35.635Z,1460
2018-09-08T11:34:36.426Z,1450
2018-09-08T11:35:35.883Z,375
2018-09-08T11:36:35.616Z,1565
2018-09-08T11:37:35.873Z,1670
2018-09-08T11:38:36.096Z,350
2018-09-08T11:39:36.127Z,300
2018-09-08T11:40:35.855Z,295
2018-09-08T11:41:36.111Z,285
2018-09-08T11:42:35.576Z,290
2018-09-08T11:43:36.370Z,345
2018-09-08T11:44:35.845Z,1580
2018-09-08T11:45:36.095Z,290
2018-09-08T11:46:36.085Z,230
2018-09-08T11:47:36.076Z,225
2018-09-08T11:48:36.089Z,220
2018-09-08T11:49:36.328Z,185
2018-09-08T11:50:36.068Z,175
2018-09-08T11:51:36.124Z,200
2018-09-08T11:52:36.315Z,230
2018-09-08T11:53:36.060Z,245
2018-09-08T11:54:36.040Z,265
2018-09-08T11:55:36.548Z,255
2018-09-08T11:56:36.027Z,245
2018-09-08T11:57:36.038Z,265
2018-09-08T11:58:35.749Z,290
2018-09-08T11:59:35.847Z,305
2018-09-08T12:00:35.746Z,340
2018-09-08T12:01:36.278Z,345
2018-09-08T12:02:35.986Z,385
2018-09-08T12:03:35.714Z,1010
2018-09-08T12:04:35.435Z,1650
2018-09-08T12:05:35.437Z,1695
2018-09-08T12:06:36.695Z,455
2018-09-08T12:07:35.688Z,465
2018-09-08T12:08:35.941Z,1775
2018-09-08T12:09:35.933Z,1740
2018-09-08T12:10:36.307Z,425
2018-09-08T12:11:36.193Z,1650
2018-09-08T12:12:36.189Z,1690
2018-09-08T12:13:35.651Z,1775
2018-09-08T12:14:35.112Z,1510
2018-09-08T12:15:36.348Z,730
2018-09-08T12:16:35.905Z,1450
2018-09-08T12:17:35.957Z,1660
2018-09-08T12:18:35.650Z,1705
2018-09-08T12:19:35.620Z,410
2018-09-08T12:20:35.622Z,905
2018-09-08T12:21:35.610Z,450
2018-09-08T12:22:35.613Z,345
2018-09-08T12:23:35.606Z,270
2018-09-08T12:24:36.137Z,265
2018-09-08T12:25:35.596Z,260
2018-09-08T12:26:35.332Z,225
2018-09-08T12:27:36.126Z,235
2018-09-08T12:28:35.589Z,245
2018-09-08T12:29:35.523Z,245
2018-09-08T12:30:36.277Z,280
2018-09-08T12:31:36.203Z,300
2018-09-08T12:32:36.444Z,290
2018-09-08T12:33:35.311Z,280
2018-09-08T12:34:36.087Z,325
2018-09-08T12:35:35.555Z,1130
2018-09-08T12:36:36.080Z,325
2018-09-08T12:37:35.549Z,290
2018-09-08T12:38:35.622Z,255
2018-09-08T12:39:35.532Z,230
2018-09-08T12:40:35.739Z,365
2018-09-08T12:41:35.530Z,1065
2018-09-08T12:42:35.525Z,1480
2018-09-08T12:43:35.779Z,1585
2018-09-08T12:44:35.766Z,1665
2018-09-08T12:45:36.048Z,1680
2018-09-08T12:46:35.491Z,1610
2018-09-08T12:47:35.758Z,1615
2018-09-08T12:48:35.494Z,360
2018-09-08T12:49:35.746Z,280
2018-09-08T12:50:36.024Z,465
2018-09-08T12:51:35.751Z,1615
2018-09-08T12:52:35.358Z,375
2018-09-08T12:53:36.082Z,490
2018-09-08T12:54:35.993Z,390
2018-09-08T12:55:35.462Z,440
2018-09-08T12:56:35.723Z,590
2018-09-08T12:57:35.191Z,1680
2018-09-08T12:58:35.447Z,1610
2018-09-08T12:59:36.053Z,1590
2018-09-08T13:00:35.443Z,445
2018-09-08T13:01:35.972Z,390
2018-09-08T13:02:35.169Z,1070
2018-09-08T13:03:36.171Z,865
2018-09-08T13:04:35.696Z,555
2018-09-08T13:05:35.164Z,825
2018-09-08T13:06:35.987Z,810
2018-09-08T13:07:35.747Z,565
2018-09-08T13:08:36.005Z,375
2018-09-08T13:09:35.681Z,310
2018-09-08T13:10:35.948Z,270
2018-09-08T13:11:35.405Z,290
2018-09-08T13:12:35.663Z,290
2018-09-08T13:13:35.395Z,290
2018-09-08T13:14:35.407Z,325
2018-09-08T13:15:35.390Z,345
2018-09-08T13:16:35.402Z,340
2018-09-08T13:17:35.394Z,345
2018-09-08T13:18:35.657Z,310
2018-09-08T13:19:35.897Z,290
2018-09-08T13:20:35.633Z,275
2018-09-08T13:21:35.572Z,255
2018-09-08T13:22:35.354Z,245
2018-09-08T13:23:35.887Z,235
2018-09-08T13:24:35.870Z,220
2018-09-08T13:25:35.609Z,205
2018-09-08T13:26:35.074Z,205
2018-09-08T13:27:35.590Z,215
2018-09-08T13:28:35.591Z,225
2018-09-08T13:29:35.050Z,245
2018-09-08T13:30:35.575Z,250
2018-09-08T13:31:35.046Z,250
2018-09-08T13:32:35.309Z,260
2018-09-08T13:33:35.551Z,260
2018-09-08T13:34:35.551Z,220
2018-09-08T13:35:35.541Z,195
2018-09-08T13:36:35.270Z,180
2018-09-08T13:37:35.531Z,175
2018-09-08T13:38:35.257Z,180
2018-09-08T13:39:35.543Z,185
2018-09-08T13:40:35.244Z,190
2018-09-08T13:41:35.760Z,185
2018-09-08T13:42:35.494Z,185
2018-09-08T13:43:35.231Z,185
2018-09-08T13:44:34.942Z,190
2018-09-08T13:45:35.737Z,185
2018-09-08T13:46:35.461Z,170
2018-09-08T13:47:35.226Z,155
2018-09-08T13:48:35.710Z,150
2018-09-08T13:49:34.917Z,145
2018-09-08T13:50:35.700Z,135
2018-09-08T13:51:35.427Z,125
2018-09-08T13:52:35.451Z,120
2018-09-08T13:53:35.203Z,120
2018-09-08T13:54:35.655Z,135
2018-09-08T13:55:35.122Z,145
2018-09-08T13:56:35.381Z,145
2018-09-08T13:57:35.106Z,160
2018-09-08T13:58:35.101Z,160
2018-09-08T13:59:35.128Z,170
2018-09-08T14:00:35.354Z,165
2018-09-08T14:01:34.816Z,160
2018-09-08T14:02:35.335Z,165
2018-09-08T14:03:35.054Z,180
2018-09-08T14:04:35.052Z,210
2018-09-08T14:05:35.304Z,250
2018-09-08T14:06:35.308Z,325
2018-09-08T14:07:35.022Z,390
2018-09-08T14:08:35.279Z,910
2018-09-08T14:09:35.268Z,980
2018-09-08T14:10:34.997Z,1155
2018-09-08T14:11:34.988Z,1045